Terminal Aerodrome Forecast
Issued by NWS

Home | Current Version | Previous Version | Text Only | Print | Product List | Glossary On
Versions: 1 2 3 4 5 6 7 8 9 10 11 12 13
000
FTUS42 KMHX 022300
TAFISO
TAF
KISO 022331Z 0300/0324 20005KT P6SM SCT050 SCT200
      TEMPO 0300/0301 VRB15G25KT 4SM -TSRA SCT025CB BKN040
     FM031600 20008KT P6SM VCTS SCT040CB BKN150
      AMD LTD TO CLD VIS AND WIND=

USA.gov is the U.S. government's official web portal to all federal, state and local government web resources and services.